sensor_id;sensor_type;location;lat;lon;timestamp;P1;durP1;ratioP1;P2;durP2;ratioP2
23714;SDS011;12036;50.858;4.472;2023-06-19T00:01:22;6.57;;;2.90;;
23714;SDS011;12036;50.858;4.472;2023-06-19T00:03:47;4.68;;;3.20;;
23714;SDS011;12036;50.858;4.472;2023-06-19T00:06:13;5.72;;;3.30;;
23714;SDS011;12036;50.858;4.472;2023-06-19T00:08:39;6.88;;;2.92;;
23714;SDS011;12036;50.858;4.472;2023-06-19T00:11:06;6.25;;;3.20;;
23714;SDS011;12036;50.858;4.472;2023-06-19T00:13:32;3.45;;;2.60;;
23714;SDS011;12036;50.858;4.472;2023-06-19T00:15:59;5.32;;;2.95;;
23714;SDS011;12036;50.858;4.472;2023-06-19T00:18:25;4.22;;;2.80;;
23714;SDS011;12036;50.858;4.472;2023-06-19T00:20:54;4.43;;;3.25;;
23714;SDS011;12036;50.858;4.472;2023-06-19T00:23:21;5.70;;;2.28;;
23714;SDS011;12036;50.858;4.472;2023-06-19T00:25:47;3.17;;;2.45;;
23714;SDS011;12036;50.858;4.472;2023-06-19T00:28:13;6.53;;;3.15;;
23714;SDS011;12036;50.858;4.472;2023-06-19T00:30:40;5.63;;;2.20;;
23714;SDS011;12036;50.858;4.472;2023-06-19T00:33:06;5.20;;;2.63;;
23714;SDS011;12036;50.858;4.472;2023-06-19T00:35:33;5.18;;;2.92;;
23714;SDS011;12036;50.858;4.472;2023-06-19T00:37:59;3.75;;;2.25;;
23714;SDS011;12036;50.858;4.472;2023-06-19T00:40:29;8.02;;;2.35;;
23714;SDS011;12036;50.858;4.472;2023-06-19T00:42:57;7.57;;;2.85;;
23714;SDS011;12036;50.858;4.472;2023-06-19T00:45:23;5.15;;;2.80;;
23714;SDS011;12036;50.858;4.472;2023-06-19T00:47:50;2.88;;;2.38;;
23714;SDS011;12036;50.858;4.472;2023-06-19T00:50:17;6.55;;;2.45;;
23714;SDS011;12036;50.858;4.472;2023-06-19T00:52:43;4.18;;;2.53;;
23714;SDS011;12036;50.858;4.472;2023-06-19T00:55:09;3.88;;;2.40;;
23714;SDS011;12036;50.858;4.472;2023-06-19T00:57:35;3.55;;;2.30;;
23714;SDS011;12036;50.858;4.472;2023-06-19T01:00:01;4.57;;;2.22;;
23714;SDS011;12036;50.858;4.472;2023-06-19T01:02:31;3.15;;;2.20;;
23714;SDS011;12036;50.858;4.472;2023-06-19T01:04:57;3.88;;;2.38;;
23714;SDS011;12036;50.858;4.472;2023-06-19T01:10:40;3.65;;;2.30;;
23714;SDS011;12036;50.858;4.472;2023-06-19T01:15:56;3.65;;;2.58;;
23714;SDS011;12036;50.858;4.472;2023-06-19T01:18:23;5.22;;;2.58;;
23714;SDS011;12036;50.858;4.472;2023-06-19T01:20:51;3.72;;;2.70;;
23714;SDS011;12036;50.858;4.472;2023-06-19T01:23:17;3.13;;;2.42;;
23714;SDS011;12036;50.858;4.472;2023-06-19T01:25:43;5.55;;;2.95;;
23714;SDS011;12036;50.858;4.472;2023-06-19T01:28:09;7.10;;;2.47;;
23714;SDS011;12036;50.858;4.472;2023-06-19T01:30:37;3.92;;;2.83;;
23714;SDS011;12036;50.858;4.472;2023-06-19T01:33:18;4.05;;;2.33;;
23714;SDS011;12036;50.858;4.472;2023-06-19T01:35:48;4.63;;;2.67;;
23714;SDS011;12036;50.858;4.472;2023-06-19T01:38:15;3.85;;;2.97;;
23714;SDS011;12036;50.858;4.472;2023-06-19T01:40:42;3.85;;;2.88;;
23714;SDS011;12036;50.858;4.472;2023-06-19T01:43:09;4.57;;;3.30;;
23714;SDS011;12036;50.858;4.472;2023-06-19T01:45:35;7.63;;;2.90;;
23714;SDS011;12036;50.858;4.472;2023-06-19T01:48:01;7.80;;;2.90;;
23714;SDS011;12036;50.858;4.472;2023-06-19T01:50:27;7.05;;;2.85;;
23714;SDS011;12036;50.858;4.472;2023-06-19T01:52:53;5.90;;;2.97;;
23714;SDS011;12036;50.858;4.472;2023-06-19T01:55:19;5.20;;;2.95;;
23714;SDS011;12036;50.858;4.472;2023-06-19T01:57:45;3.13;;;2.70;;
23714;SDS011;12036;50.858;4.472;2023-06-19T02:00:11;2.83;;;2.42;;
23714;SDS011;12036;50.858;4.472;2023-06-19T02:02:37;8.98;;;3.40;;
23714;SDS011;12036;50.858;4.472;2023-06-19T02:05:02;5.15;;;3.47;;
23714;SDS011;12036;50.858;4.472;2023-06-19T02:07:29;7.70;;;3.40;;
23714;SDS011;12036;50.858;4.472;2023-06-19T02:09:55;4.45;;;3.55;;
23714;SDS011;12036;50.858;4.472;2023-06-19T02:12:21;7.65;;;3.20;;
23714;SDS011;12036;50.858;4.472;2023-06-19T02:14:47;3.55;;;2.92;;
23714;SDS011;12036;50.858;4.472;2023-06-19T02:17:12;5.50;;;3.53;;
23714;SDS011;12036;50.858;4.472;2023-06-19T02:19:38;4.32;;;3.53;;
23714;SDS011;12036;50.858;4.472;2023-06-19T02:22:04;4.13;;;3.10;;
23714;SDS011;12036;50.858;4.472;2023-06-19T02:24:31;4.75;;;3.17;;
23714;SDS011;12036;50.858;4.472;2023-06-19T02:26:57;10.18;;;3.70;;
23714;SDS011;12036;50.858;4.472;2023-06-19T02:29:23;3.65;;;3.00;;
23714;SDS011;12036;50.858;4.472;2023-06-19T02:31:48;6.18;;;3.40;;
23714;SDS011;12036;50.858;4.472;2023-06-19T02:34:14;8.10;;;3.45;;
23714;SDS011;12036;50.858;4.472;2023-06-19T02:36:40;5.28;;;3.58;;
23714;SDS011;12036;50.858;4.472;2023-06-19T02:39:06;6.05;;;3.85;;
23714;SDS011;12036;50.858;4.472;2023-06-19T02:41:33;5.30;;;3.45;;
23714;SDS011;12036;50.858;4.472;2023-06-19T02:43:59;5.32;;;3.50;;
23714;SDS011;12036;50.858;4.472;2023-06-19T02:46:24;5.53;;;3.63;;
23714;SDS011;12036;50.858;4.472;2023-06-19T02:48:50;4.28;;;3.60;;
23714;SDS011;12036;50.858;4.472;2023-06-19T02:51:16;6.60;;;4.03;;
23714;SDS011;12036;50.858;4.472;2023-06-19T02:53:41;5.47;;;3.88;;
23714;SDS011;12036;50.858;4.472;2023-06-19T02:56:08;4.82;;;3.75;;
23714;SDS011;12036;50.858;4.472;2023-06-19T02:58:34;4.72;;;3.63;;
23714;SDS011;12036;50.858;4.472;2023-06-19T03:01:02;6.65;;;3.40;;
23714;SDS011;12036;50.858;4.472;2023-06-19T03:03:28;5.88;;;3.85;;
23714;SDS011;12036;50.858;4.472;2023-06-19T03:05:54;6.50;;;3.70;;
23714;SDS011;12036;50.858;4.472;2023-06-19T03:08:21;6.68;;;4.53;;
23714;SDS011;12036;50.858;4.472;2023-06-19T03:10:47;4.25;;;3.85;;
23714;SDS011;12036;50.858;4.472;2023-06-19T03:13:13;14.25;;;4.57;;
23714;SDS011;12036;50.858;4.472;2023-06-19T03:15:39;6.35;;;4.68;;
23714;SDS011;12036;50.858;4.472;2023-06-19T03:18:04;5.25;;;4.75;;
23714;SDS011;12036;50.858;4.472;2023-06-19T03:20:32;8.75;;;5.88;;
23714;SDS011;12036;50.858;4.472;2023-06-19T03:22:58;10.02;;;6.03;;
23714;SDS011;12036;50.858;4.472;2023-06-19T03:25:23;8.00;;;6.15;;
23714;SDS011;12036;50.858;4.472;2023-06-19T03:27:49;9.38;;;7.80;;
23714;SDS011;12036;50.858;4.472;2023-06-19T03:30:15;9.63;;;7.75;;
23714;SDS011;12036;50.858;4.472;2023-06-19T03:32:43;9.45;;;7.30;;
23714;SDS011;12036;50.858;4.472;2023-06-19T03:35:09;13.02;;;7.47;;
23714;SDS011;12036;50.858;4.472;2023-06-19T03:37:35;8.88;;;7.40;;
23714;SDS011;12036;50.858;4.472;2023-06-19T03:40:01;9.88;;;7.88;;
23714;SDS011;12036;50.858;4.472;2023-06-19T03:42:28;9.45;;;7.38;;
23714;SDS011;12036;50.858;4.472;2023-06-19T03:44:54;11.82;;;7.60;;
23714;SDS011;12036;50.858;4.472;2023-06-19T03:47:19;13.07;;;8.70;;
23714;SDS011;12036;50.858;4.472;2023-06-19T03:49:46;10.75;;;8.10;;
23714;SDS011;12036;50.858;4.472;2023-06-19T03:52:13;14.50;;;8.82;;
23714;SDS011;12036;50.858;4.472;2023-06-19T03:54:39;17.30;;;10.85;;
23714;SDS011;12036;50.858;4.472;2023-06-19T03:57:05;20.75;;;10.77;;
23714;SDS011;12036;50.858;4.472;2023-06-19T03:59:31;13.15;;;9.57;;
23714;SDS011;12036;50.858;4.472;2023-06-19T04:01:57;17.27;;;11.00;;
23714;SDS011;12036;50.858;4.472;2023-06-19T04:04:22;16.58;;;11.68;;
23714;SDS011;12036;50.858;4.472;2023-06-19T04:06:49;16.40;;;11.43;;
23714;SDS011;12036;50.858;4.472;2023-06-19T04:09:14;19.70;;;12.25;;
23714;SDS011;12036;50.858;4.472;2023-06-19T04:11:40;19.60;;;12.45;;
23714;SDS011;12036;50.858;4.472;2023-06-19T04:14:06;18.38;;;12.05;;
23714;SDS011;12036;50.858;4.472;2023-06-19T04:16:32;16.00;;;11.65;;
23714;SDS011;12036;50.858;4.472;2023-06-19T04:18:57;14.57;;;11.20;;
23714;SDS011;12036;50.858;4.472;2023-06-19T04:21:23;15.52;;;10.75;;
23714;SDS011;12036;50.858;4.472;2023-06-19T04:23:49;17.90;;;11.65;;
23714;SDS011;12036;50.858;4.472;2023-06-19T04:26:15;15.40;;;10.98;;
23714;SDS011;12036;50.858;4.472;2023-06-19T04:28:40;15.05;;;10.32;;
23714;SDS011;12036;50.858;4.472;2023-06-19T04:31:07;13.82;;;9.55;;
23714;SDS011;12036;50.858;4.472;2023-06-19T04:33:32;13.25;;;8.98;;
23714;SDS011;12036;50.858;4.472;2023-06-19T04:35:58;11.18;;;8.95;;
23714;SDS011;12036;50.858;4.472;2023-06-19T04:38:24;12.45;;;9.00;;
23714;SDS011;12036;50.858;4.472;2023-06-19T04:40:52;16.58;;;9.45;;
23714;SDS011;12036;50.858;4.472;2023-06-19T04:43:18;10.52;;;8.13;;
23714;SDS011;12036;50.858;4.472;2023-06-19T04:45:44;12.13;;;8.55;;
23714;SDS011;12036;50.858;4.472;2023-06-19T04:48:10;10.18;;;8.38;;
23714;SDS011;12036;50.858;4.472;2023-06-19T04:50:36;10.27;;;7.88;;
23714;SDS011;12036;50.858;4.472;2023-06-19T04:53:02;11.13;;;7.93;;
23714;SDS011;12036;50.858;4.472;2023-06-19T04:55:28;10.82;;;8.55;;
23714;SDS011;12036;50.858;4.472;2023-06-19T04:57:55;12.77;;;8.27;;
23714;SDS011;12036;50.858;4.472;2023-06-19T05:00:21;12.07;;;8.23;;
23714;SDS011;12036;50.858;4.472;2023-06-19T05:02:48;13.70;;;8.63;;
23714;SDS011;12036;50.858;4.472;2023-06-19T05:05:14;14.10;;;8.52;;
23714;SDS011;12036;50.858;4.472;2023-06-19T05:07:40;10.18;;;7.80;;
23714;SDS011;12036;50.858;4.472;2023-06-19T05:10:06;11.70;;;8.48;;
23714;SDS011;12036;50.858;4.472;2023-06-19T05:12:33;13.35;;;8.30;;
23714;SDS011;12036;50.858;4.472;2023-06-19T05:14:59;11.60;;;8.95;;
23714;SDS011;12036;50.858;4.472;2023-06-19T05:17:25;11.98;;;8.68;;
23714;SDS011;12036;50.858;4.472;2023-06-19T05:19:51;10.65;;;8.30;;
23714;SDS011;12036;50.858;4.472;2023-06-19T05:22:16;12.55;;;8.57;;
23714;SDS011;12036;50.858;4.472;2023-06-19T05:24:43;8.40;;;7.47;;
23714;SDS011;12036;50.858;4.472;2023-06-19T05:27:10;8.85;;;6.95;;
23714;SDS011;12036;50.858;4.472;2023-06-19T05:29:35;13.68;;;8.13;;
23714;SDS011;12036;50.858;4.472;2023-06-19T05:32:01;11.00;;;7.88;;
23714;SDS011;12036;50.858;4.472;2023-06-19T05:34:27;9.68;;;6.88;;
23714;SDS011;12036;50.858;4.472;2023-06-19T05:36:52;10.65;;;7.22;;
23714;SDS011;12036;50.858;4.472;2023-06-19T05:39:18;10.32;;;7.70;;
23714;SDS011;12036;50.858;4.472;2023-06-19T05:41:44;10.95;;;7.60;;
23714;SDS011;12036;50.858;4.472;2023-06-19T05:44:10;9.45;;;7.75;;
23714;SDS011;12036;50.858;4.472;2023-06-19T05:46:40;12.82;;;7.63;;
23714;SDS011;12036;50.858;4.472;2023-06-19T05:49:06;13.18;;;8.48;;
23714;SDS011;12036;50.858;4.472;2023-06-19T05:51:32;13.25;;;8.98;;
23714;SDS011;12036;50.858;4.472;2023-06-19T05:53:57;11.77;;;9.10;;
23714;SDS011;12036;50.858;4.472;2023-06-19T05:56:28;16.67;;;8.63;;
23714;SDS011;12036;50.858;4.472;2023-06-19T05:58:54;13.52;;;9.07;;
23714;SDS011;12036;50.858;4.472;2023-06-19T06:01:20;14.15;;;9.15;;
23714;SDS011;12036;50.858;4.472;2023-06-19T06:03:45;14.30;;;9.10;;
23714;SDS011;12036;50.858;4.472;2023-06-19T06:06:11;12.63;;;9.15;;
23714;SDS011;12036;50.858;4.472;2023-06-19T06:08:37;13.05;;;8.95;;
23714;SDS011;12036;50.858;4.472;2023-06-19T06:11:02;13.63;;;9.20;;
23714;SDS011;12036;50.858;4.472;2023-06-19T06:13:28;15.43;;;11.10;;
23714;SDS011;12036;50.858;4.472;2023-06-19T06:15:54;13.88;;;9.65;;
23714;SDS011;12036;50.858;4.472;2023-06-19T06:18:19;12.18;;;9.88;;
23714;SDS011;12036;50.858;4.472;2023-06-19T06:20:45;13.68;;;10.48;;
23714;SDS011;12036;50.858;4.472;2023-06-19T06:23:10;14.00;;;10.35;;
23714;SDS011;12036;50.858;4.472;2023-06-19T06:25:36;12.80;;;10.75;;
23714;SDS011;12036;50.858;4.472;2023-06-19T06:28:02;13.23;;;10.25;;
23714;SDS011;12036;50.858;4.472;2023-06-19T06:30:27;14.88;;;10.32;;
23714;SDS011;12036;50.858;4.472;2023-06-19T06:32:53;15.63;;;9.63;;
23714;SDS011;12036;50.858;4.472;2023-06-19T06:35:19;13.40;;;9.48;;
23714;SDS011;12036;50.858;4.472;2023-06-19T06:37:44;12.60;;;9.23;;
23714;SDS011;12036;50.858;4.472;2023-06-19T06:40:11;12.80;;;10.68;;
23714;SDS011;12036;50.858;4.472;2023-06-19T06:42:37;15.30;;;10.75;;
23714;SDS011;12036;50.858;4.472;2023-06-19T06:45:04;13.23;;;11.15;;
23714;SDS011;12036;50.858;4.472;2023-06-19T06:47:31;17.08;;;11.52;;
23714;SDS011;12036;50.858;4.472;2023-06-19T06:49:57;17.50;;;12.05;;
23714;SDS011;12036;50.858;4.472;2023-06-19T06:52:23;17.48;;;11.70;;
23714;SDS011;12036;50.858;4.472;2023-06-19T06:54:49;13.30;;;11.10;;
23714;SDS011;12036;50.858;4.472;2023-06-19T06:57:15;15.10;;;11.25;;
23714;SDS011;12036;50.858;4.472;2023-06-19T06:59:41;14.85;;;10.13;;
23714;SDS011;12036;50.858;4.472;2023-06-19T07:02:07;16.20;;;10.20;;
23714;SDS011;12036;50.858;4.472;2023-06-19T07:04:32;15.73;;;10.32;;
23714;SDS011;12036;50.858;4.472;2023-06-19T07:06:58;11.55;;;9.77;;
23714;SDS011;12036;50.858;4.472;2023-06-19T07:09:24;17.15;;;9.75;;
23714;SDS011;12036;50.858;4.472;2023-06-19T07:11:50;15.27;;;9.95;;
23714;SDS011;12036;50.858;4.472;2023-06-19T07:14:15;13.30;;;8.90;;
23714;SDS011;12036;50.858;4.472;2023-06-19T07:16:44;16.42;;;9.70;;
23714;SDS011;12036;50.858;4.472;2023-06-19T07:19:10;13.07;;;9.40;;
23714;SDS011;12036;50.858;4.472;2023-06-19T07:21:36;11.63;;;8.40;;
23714;SDS011;12036;50.858;4.472;2023-06-19T07:24:03;12.20;;;8.90;;
23714;SDS011;12036;50.858;4.472;2023-06-19T07:26:30;12.32;;;8.73;;
23714;SDS011;12036;50.858;4.472;2023-06-19T07:28:56;14.43;;;8.57;;
23714;SDS011;12036;50.858;4.472;2023-06-19T07:31:21;14.73;;;8.25;;
23714;SDS011;12036;50.858;4.472;2023-06-19T07:33:47;10.35;;;7.63;;
23714;SDS011;12036;50.858;4.472;2023-06-19T07:36:12;12.45;;;7.80;;
23714;SDS011;12036;50.858;4.472;2023-06-19T07:38:39;12.23;;;7.80;;
23714;SDS011;12036;50.858;4.472;2023-06-19T07:41:05;11.55;;;7.70;;
23714;SDS011;12036;50.858;4.472;2023-06-19T07:43:32;12.55;;;8.63;;
23714;SDS011;12036;50.858;4.472;2023-06-19T07:45:58;10.82;;;7.97;;
23714;SDS011;12036;50.858;4.472;2023-06-19T07:48:24;12.60;;;8.20;;
23714;SDS011;12036;50.858;4.472;2023-06-19T07:50:49;10.00;;;8.18;;
23714;SDS011;12036;50.858;4.472;2023-06-19T07:53:15;11.45;;;8.02;;
23714;SDS011;12036;50.858;4.472;2023-06-19T07:55:41;14.30;;;9.80;;
23714;SDS011;12036;50.858;4.472;2023-06-19T07:58:07;13.40;;;8.45;;
23714;SDS011;12036;50.858;4.472;2023-06-19T08:00:32;14.15;;;8.85;;
23714;SDS011;12036;50.858;4.472;2023-06-19T08:02:58;11.20;;;8.43;;
23714;SDS011;12036;50.858;4.472;2023-06-19T08:05:24;13.52;;;8.60;;
23714;SDS011;12036;50.858;4.472;2023-06-19T08:07:49;13.98;;;8.68;;
23714;SDS011;12036;50.858;4.472;2023-06-19T08:10:15;13.25;;;8.30;;
23714;SDS011;12036;50.858;4.472;2023-06-19T08:12:41;13.13;;;8.55;;
23714;SDS011;12036;50.858;4.472;2023-06-19T08:15:08;14.45;;;7.85;;
23714;SDS011;12036;50.858;4.472;2023-06-19T08:17:35;15.48;;;7.40;;
23714;SDS011;12036;50.858;4.472;2023-06-19T08:20:00;10.70;;;7.60;;
23714;SDS011;12036;50.858;4.472;2023-06-19T08:22:28;13.32;;;8.05;;
23714;SDS011;12036;50.858;4.472;2023-06-19T08:24:53;11.25;;;7.32;;
23714;SDS011;12036;50.858;4.472;2023-06-19T08:27:19;8.82;;;6.95;;
23714;SDS011;12036;50.858;4.472;2023-06-19T08:29:44;10.88;;;7.38;;
23714;SDS011;12036;50.858;4.472;2023-06-19T08:32:10;12.07;;;7.35;;
23714;SDS011;12036;50.858;4.472;2023-06-19T08:34:35;9.32;;;7.25;;
23714;SDS011;12036;50.858;4.472;2023-06-19T08:37:03;11.88;;;7.50;;
23714;SDS011;12036;50.858;4.472;2023-06-19T08:39:29;9.82;;;6.82;;
23714;SDS011;12036;50.858;4.472;2023-06-19T08:41:55;12.68;;;7.65;;
23714;SDS011;12036;50.858;4.472;2023-06-19T08:44:21;13.25;;;7.45;;
23714;SDS011;12036;50.858;4.472;2023-06-19T08:46:46;10.15;;;7.32;;
23714;SDS011;12036;50.858;4.472;2023-06-19T08:49:12;10.52;;;7.15;;
23714;SDS011;12036;50.858;4.472;2023-06-19T08:51:38;9.63;;;6.78;;
23714;SDS011;12036;50.858;4.472;2023-06-19T08:54:06;14.50;;;7.28;;
23714;SDS011;12036;50.858;4.472;2023-06-19T08:56:32;8.93;;;6.93;;
23714;SDS011;12036;50.858;4.472;2023-06-19T08:59:12;9.65;;;6.80;;
23714;SDS011;12036;50.858;4.472;2023-06-19T09:01:48;8.68;;;6.65;;
23714;SDS011;12036;50.858;4.472;2023-06-19T09:04:21;8.75;;;6.78;;
23714;SDS011;12036;50.858;4.472;2023-06-19T09:09:16;10.50;;;6.38;;
23714;SDS011;12036;50.858;4.472;2023-06-19T09:11:59;11.43;;;6.78;;
23714;SDS011;12036;50.858;4.472;2023-06-19T09:17:06;10.50;;;7.10;;
23714;SDS011;12036;50.858;4.472;2023-06-19T09:19:34;9.18;;;6.55;;
23714;SDS011;12036;50.858;4.472;2023-06-19T09:22:01;10.32;;;6.78;;
23714;SDS011;12036;50.858;4.472;2023-06-19T09:24:35;10.05;;;6.35;;
23714;SDS011;12036;50.858;4.472;2023-06-19T09:29:42;10.98;;;6.63;;
23714;SDS011;12036;50.858;4.472;2023-06-19T09:34:48;10.23;;;7.03;;
23714;SDS011;12036;50.858;4.472;2023-06-19T09:37:16;12.60;;;6.25;;
23714;SDS011;12036;50.858;4.472;2023-06-19T09:39:52;11.05;;;7.15;;
23714;SDS011;12036;50.858;4.472;2023-06-19T09:42:20;11.65;;;7.38;;
23714;SDS011;12036;50.858;4.472;2023-06-19T09:44:52;11.20;;;5.97;;
23714;SDS011;12036;50.858;4.472;2023-06-19T09:47:24;12.10;;;6.75;;
23714;SDS011;12036;50.858;4.472;2023-06-19T09:49:54;11.55;;;6.80;;
23714;SDS011;12036;50.858;4.472;2023-06-19T09:52:21;9.82;;;6.90;;
23714;SDS011;12036;50.858;4.472;2023-06-19T09:54:51;10.02;;;6.18;;
23714;SDS011;12036;50.858;4.472;2023-06-19T09:57:19;9.40;;;6.93;;
23714;SDS011;12036;50.858;4.472;2023-06-19T09:59:52;9.88;;;6.85;;
23714;SDS011;12036;50.858;4.472;2023-06-19T10:02:21;9.85;;;6.47;;
23714;SDS011;12036;50.858;4.472;2023-06-19T10:04:52;13.18;;;6.30;;
23714;SDS011;12036;50.858;4.472;2023-06-19T10:07:26;7.35;;;6.25;;
23714;SDS011;12036;50.858;4.472;2023-06-19T10:10:04;9.40;;;6.32;;
23714;SDS011;12036;50.858;4.472;2023-06-19T10:12:41;9.38;;;6.65;;
23714;SDS011;12036;50.858;4.472;2023-06-19T10:15:20;10.52;;;6.28;;
23714;SDS011;12036;50.858;4.472;2023-06-19T10:17:54;11.55;;;5.82;;
23714;SDS011;12036;50.858;4.472;2023-06-19T10:20:26;7.75;;;6.00;;
23714;SDS011;12036;50.858;4.472;2023-06-19T10:23:03;6.03;;;4.72;;
23714;SDS011;12036;50.858;4.472;2023-06-19T10:25:41;9.70;;;5.45;;
23714;SDS011;12036;50.858;4.472;2023-06-19T10:30:56;6.30;;;4.90;;
23714;SDS011;12036;50.858;4.472;2023-06-19T10:33:24;9.25;;;5.40;;
23714;SDS011;12036;50.858;4.472;2023-06-19T10:35:52;9.38;;;4.93;;
23714;SDS011;12036;50.858;4.472;2023-06-19T10:38:18;8.88;;;5.63;;
23714;SDS011;12036;50.858;4.472;2023-06-19T10:40:44;10.30;;;5.28;;
23714;SDS011;12036;50.858;4.472;2023-06-19T10:43:10;9.43;;;5.93;;
23714;SDS011;12036;50.858;4.472;2023-06-19T10:45:36;7.85;;;5.25;;
23714;SDS011;12036;50.858;4.472;2023-06-19T10:48:02;6.45;;;5.38;;
23714;SDS011;12036;50.858;4.472;2023-06-19T10:50:29;9.25;;;5.65;;
23714;SDS011;12036;50.858;4.472;2023-06-19T10:53:07;9.13;;;5.65;;
23714;SDS011;12036;50.858;4.472;2023-06-19T10:55:32;9.93;;;6.22;;
23714;SDS011;12036;50.858;4.472;2023-06-19T10:57:58;7.50;;;5.70;;
23714;SDS011;12036;50.858;4.472;2023-06-19T11:00:24;8.65;;;5.50;;
23714;SDS011;12036;50.858;4.472;2023-06-19T11:02:55;21.77;;;5.90;;
23714;SDS011;12036;50.858;4.472;2023-06-19T11:05:22;15.70;;;5.65;;
23714;SDS011;12036;50.858;4.472;2023-06-19T11:07:52;10.95;;;5.55;;
23714;SDS011;12036;50.858;4.472;2023-06-19T11:10:22;15.13;;;6.13;;
23714;SDS011;12036;50.858;4.472;2023-06-19T11:12:52;7.07;;;5.40;;
23714;SDS011;12036;50.858;4.472;2023-06-19T11:15:19;9.48;;;5.93;;
23714;SDS011;12036;50.858;4.472;2023-06-19T11:17:45;10.07;;;5.60;;
23714;SDS011;12036;50.858;4.472;2023-06-19T11:20:12;12.75;;;5.60;;
23714;SDS011;12036;50.858;4.472;2023-06-19T11:22:39;9.45;;;5.15;;
23714;SDS011;12036;50.858;4.472;2023-06-19T11:25:06;10.77;;;5.60;;
23714;SDS011;12036;50.858;4.472;2023-06-19T11:27:33;8.13;;;5.75;;
23714;SDS011;12036;50.858;4.472;2023-06-19T11:30:01;10.23;;;6.07;;
23714;SDS011;12036;50.858;4.472;2023-06-19T11:32:30;9.35;;;6.43;;
23714;SDS011;12036;50.858;4.472;2023-06-19T11:34:57;10.20;;;6.60;;
23714;SDS011;12036;50.858;4.472;2023-06-19T11:37:29;12.77;;;7.05;;
23714;SDS011;12036;50.858;4.472;2023-06-19T11:39:54;9.35;;;6.75;;
23714;SDS011;12036;50.858;4.472;2023-06-19T11:42:22;11.05;;;5.93;;
23714;SDS011;12036;50.858;4.472;2023-06-19T11:44:55;9.20;;;6.00;;
23714;SDS011;12036;50.858;4.472;2023-06-19T11:47:22;7.30;;;5.70;;
23714;SDS011;12036;50.858;4.472;2023-06-19T11:49:48;9.35;;;5.72;;
23714;SDS011;12036;50.858;4.472;2023-06-19T11:52:15;9.20;;;6.25;;
23714;SDS011;12036;50.858;4.472;2023-06-19T11:54:41;8.48;;;5.85;;
23714;SDS011;12036;50.858;4.472;2023-06-19T11:57:08;7.70;;;5.18;;
23714;SDS011;12036;50.858;4.472;2023-06-19T11:59:38;8.40;;;5.10;;
23714;SDS011;12036;50.858;4.472;2023-06-19T12:02:04;7.18;;;5.32;;
23714;SDS011;12036;50.858;4.472;2023-06-19T12:04:30;8.30;;;5.18;;
23714;SDS011;12036;50.858;4.472;2023-06-19T12:06:56;8.07;;;4.47;;
23714;SDS011;12036;50.858;4.472;2023-06-19T12:09:21;5.97;;;4.45;;
23714;SDS011;12036;50.858;4.472;2023-06-19T12:11:47;6.80;;;4.38;;
23714;SDS011;12036;50.858;4.472;2023-06-19T12:14:13;5.57;;;4.43;;
23714;SDS011;12036;50.858;4.472;2023-06-19T12:16:39;6.35;;;5.00;;
23714;SDS011;12036;50.858;4.472;2023-06-19T12:19:04;6.40;;;4.82;;
23714;SDS011;12036;50.858;4.472;2023-06-19T12:21:30;8.10;;;5.07;;
23714;SDS011;12036;50.858;4.472;2023-06-19T12:23:56;9.23;;;5.35;;
23714;SDS011;12036;50.858;4.472;2023-06-19T12:26:21;6.32;;;4.47;;
23714;SDS011;12036;50.858;4.472;2023-06-19T12:28:50;10.82;;;5.10;;
23714;SDS011;12036;50.858;4.472;2023-06-19T12:31:16;6.55;;;4.03;;
23714;SDS011;12036;50.858;4.472;2023-06-19T12:33:42;6.60;;;4.45;;
23714;SDS011;12036;50.858;4.472;2023-06-19T12:36:10;7.80;;;4.63;;
23714;SDS011;12036;50.858;4.472;2023-06-19T12:38:39;9.13;;;4.57;;
23714;SDS011;12036;50.858;4.472;2023-06-19T12:41:05;7.60;;;4.70;;
23714;SDS011;12036;50.858;4.472;2023-06-19T12:43:31;7.47;;;4.53;;
23714;SDS011;12036;50.858;4.472;2023-06-19T12:45:57;6.68;;;4.45;;
23714;SDS011;12036;50.858;4.472;2023-06-19T12:48:24;6.07;;;4.20;;
23714;SDS011;12036;50.858;4.472;2023-06-19T12:50:50;10.35;;;4.40;;
23714;SDS011;12036;50.858;4.472;2023-06-19T12:53:16;6.88;;;4.22;;
23714;SDS011;12036;50.858;4.472;2023-06-19T12:55:41;8.80;;;4.20;;
23714;SDS011;12036;50.858;4.472;2023-06-19T12:58:08;5.95;;;3.90;;
23714;SDS011;12036;50.858;4.472;2023-06-19T13:00:34;5.78;;;4.50;;
23714;SDS011;12036;50.858;4.472;2023-06-19T13:02:59;8.25;;;4.30;;
23714;SDS011;12036;50.858;4.472;2023-06-19T13:05:25;7.70;;;4.30;;
23714;SDS011;12036;50.858;4.472;2023-06-19T13:07:51;4.97;;;3.75;;
23714;SDS011;12036;50.858;4.472;2023-06-19T13:10:17;9.38;;;4.07;;
23714;SDS011;12036;50.858;4.472;2023-06-19T13:12:42;8.55;;;4.50;;
23714;SDS011;12036;50.858;4.472;2023-06-19T13:15:08;5.30;;;4.00;;
23714;SDS011;12036;50.858;4.472;2023-06-19T13:17:34;6.25;;;4.15;;
23714;SDS011;12036;50.858;4.472;2023-06-19T13:20:00;7.43;;;4.47;;
23714;SDS011;12036;50.858;4.472;2023-06-19T13:22:26;6.32;;;4.63;;
23714;SDS011;12036;50.858;4.472;2023-06-19T13:24:52;7.30;;;3.72;;
23714;SDS011;12036;50.858;4.472;2023-06-19T13:27:17;7.13;;;4.28;;
23714;SDS011;12036;50.858;4.472;2023-06-19T13:29:43;5.20;;;4.25;;
23714;SDS011;12036;50.858;4.472;2023-06-19T13:32:09;7.72;;;4.45;;
23714;SDS011;12036;50.858;4.472;2023-06-19T13:34:34;9.40;;;4.22;;
23714;SDS011;12036;50.858;4.472;2023-06-19T13:37:00;6.18;;;3.70;;
23714;SDS011;12036;50.858;4.472;2023-06-19T13:39:26;5.90;;;3.78;;
23714;SDS011;12036;50.858;4.472;2023-06-19T13:41:52;5.53;;;4.30;;
23714;SDS011;12036;50.858;4.472;2023-06-19T13:44:17;6.05;;;4.00;;
23714;SDS011;12036;50.858;4.472;2023-06-19T13:46:44;6.63;;;4.53;;
23714;SDS011;12036;50.858;4.472;2023-06-19T13:49:09;4.55;;;3.63;;
23714;SDS011;12036;50.858;4.472;2023-06-19T13:51:36;6.20;;;4.32;;
23714;SDS011;12036;50.858;4.472;2023-06-19T13:54:02;4.20;;;3.45;;
23714;SDS011;12036;50.858;4.472;2023-06-19T13:56:29;4.38;;;3.78;;
23714;SDS011;12036;50.858;4.472;2023-06-19T13:58:55;6.00;;;4.57;;
23714;SDS011;12036;50.858;4.472;2023-06-19T14:01:21;4.80;;;3.90;;
23714;SDS011;12036;50.858;4.472;2023-06-19T14:03:46;6.75;;;4.32;;
23714;SDS011;12036;50.858;4.472;2023-06-19T14:06:12;6.10;;;3.55;;
23714;SDS011;12036;50.858;4.472;2023-06-19T14:08:38;6.75;;;3.90;;
23714;SDS011;12036;50.858;4.472;2023-06-19T14:11:04;4.07;;;3.28;;
23714;SDS011;12036;50.858;4.472;2023-06-19T14:13:30;5.57;;;3.33;;
23714;SDS011;12036;50.858;4.472;2023-06-19T14:15:56;4.22;;;3.08;;
23714;SDS011;12036;50.858;4.472;2023-06-19T14:18:22;5.53;;;3.35;;
23714;SDS011;12036;50.858;4.472;2023-06-19T14:20:47;3.83;;;3.40;;
23714;SDS011;12036;50.858;4.472;2023-06-19T14:23:13;4.18;;;3.65;;
23714;SDS011;12036;50.858;4.472;2023-06-19T14:25:39;3.53;;;3.00;;
23714;SDS011;12036;50.858;4.472;2023-06-19T14:28:05;6.07;;;3.45;;
23714;SDS011;12036;50.858;4.472;2023-06-19T14:30:30;4.93;;;3.70;;
23714;SDS011;12036;50.858;4.472;2023-06-19T14:32:56;5.30;;;3.80;;
23714;SDS011;12036;50.858;4.472;2023-06-19T14:35:22;5.05;;;3.28;;
23714;SDS011;12036;50.858;4.472;2023-06-19T14:37:47;5.45;;;3.63;;
23714;SDS011;12036;50.858;4.472;2023-06-19T14:40:13;8.10;;;3.53;;
23714;SDS011;12036;50.858;4.472;2023-06-19T14:42:39;5.13;;;3.05;;
23714;SDS011;12036;50.858;4.472;2023-06-19T14:45:05;3.92;;;3.22;;
23714;SDS011;12036;50.858;4.472;2023-06-19T14:47:31;14.52;;;3.63;;
23714;SDS011;12036;50.858;4.472;2023-06-19T14:49:58;4.95;;;3.00;;
23714;SDS011;12036;50.858;4.472;2023-06-19T14:52:23;4.97;;;2.95;;
23714;SDS011;12036;50.858;4.472;2023-06-19T14:54:49;5.00;;;2.80;;
23714;SDS011;12036;50.858;4.472;2023-06-19T14:57:15;5.72;;;2.92;;